• Join FlightAware (Why Join?)
  • Login
  • US Flag 
02:40AM EDT


 

Airport Tracker/Info


-or-


 

Live Flight TrackerFlight Track Log ✈ PDT4373 ✈ 17 de Oct de 2013 ✈ KBGM - KPHL

Flight Track Log - Related Links

Times and Time Zones

All times are in EDT time to prevent confusion due to time zone crossing. See the PDT4373 flight status page for this flight to view local times or setup timezone preferences in your user account.

Time Position Orientation Groundspeed Altitude Reporting Facility
EDT Latitude Longitude Course Direction KTS MPH feet Rate Location/Type
11:39AM 42.0389 -75.9241 180° South  Level Estimated
11:40AM 41.9807 -75.9260 181° South  Level FlightAware Approximate
11:41AM 41.9226 -75.9278 181° South  Level FlightAware Approximate
11:42AM 41.8662 -75.9084 154° Southeast  Level Estimated
11:43AM 41.8099 -75.8889 160° South  Level Estimated
11:44AM 41.7536 -75.8695 159° South  Level Estimated
11:45AM 41.6966 -75.8539 168° South  Level FlightAware Approximate
11:46AM 41.6403 -75.8344 153° Southeast  Level Estimated
11:47AM 41.5839 -75.8150 161° South  Level Estimated
11:48AM 41.5284 -75.7918 163° South  Level FlightAware Approximate
11:49AM 41.4729 -75.7687 163° South  Level FlightAware Approximate
11:50AM 41.4165 -75.7497 162° South  Level Estimated
11:51AM 41.3613 -75.7253 162° South  Level FlightAware Approximate
11:52AM 41.3060 -75.7009 162° South  Level FlightAware Approximate
11:53AM 41.2508 -75.6766 162° South  Level FlightAware Approximate
11:54AM 41.1956 -75.6523 162° South  Level FlightAware Approximate
11:55AM 41.1390 -75.6344 159° South  Level Estimated
11:56AM 41.0824 -75.6165 163° South  Level Estimated
11:57AM 41.0275 -75.5913 161° South  Level FlightAware Approximate
11:58AM 40.9725 -75.5662 161° South  Level FlightAware Approximate
11:59AM 40.9175 -75.5412 161° South  Level FlightAware Approximate
12:00PM 40.8607 -75.5246 190° South  Level Estimated
12:01PM 40.8026 -75.5206 177° South  Level FlightAware Approximate
12:02PM 40.7445 -75.5166 177° South  Level FlightAware Approximate
12:03PM 40.6864 -75.5127 177° South  Level FlightAware Approximate
12:04PM 40.6300 -75.4936 187° South  Level Estimated
12:05PM 40.5720 -75.4995 184° South  Level FlightAware Approximate
12:05PM 40.5833 -75.3833 143° Southeast 228 262 5,000  Level Philadelphia TRACON
12:05PM 40.5333 -75.4167 207° Southwest 215 247 5,000  Level Philadelphia TRACON
12:06PM 40.5161 -75.4786 190° South  Level Estimated
12:06PM 40.4833 -75.4500 207° Southwest 209 241 5,000  Level Philadelphia TRACON
12:07PM 40.4591 -75.4939 192° South  Level FlightAware Approximate
12:07PM 40.4333 -75.4833 207° Southwest 208 239 5,000  Level Philadelphia TRACON
12:08PM 40.4021 -75.5092 192° South  Level FlightAware Approximate
12:08PM 40.3667 -75.4833 180° South 204 235 4,600  Level Philadelphia TRACON
12:09PM 40.3479 -75.4816 143° Southeast  Level Estimated
12:09PM 40.3167 -75.4500 153° Southeast 212 244 3,900  Level Philadelphia TRACON
12:10PM 40.2937 -75.4539 143° Southeast  Level Estimated
12:10PM 40.2500 -75.4167 159° South 239 275 3,200  Level Philadelphia TRACON
12:11PM 40.2000 -75.3833 153° Southeast 227 261 3,000 -120 Descending Philadelphia TRACON
12:12PM 40.1333 -75.3667 169° South 203 234 3,000  Level Philadelphia TRACON
12:13PM 40.0833 -75.3333 153° Southeast 214 246 3,000  Level Philadelphia TRACON
12:14PM 40.0333 -75.3167 166° South 216 249 3,000 -480 Level Philadelphia TRACON
12:15PM 39.9833 -75.2833 153° Southeast 195 224 2,100 -960 Descending Philadelphia TRACON
12:16PM 39.9333 -75.2667 166° South 139 160 1,100 -840 Descending Philadelphia TRACON
12:17PM 39.9000 -75.2500 159° South 131 151 400 -780 Descending Philadelphia TRACON
12:19PM 39.8667 -75.2333 150° Southeast  Level FlightAware Approximate
12:26PM 39.8722 -75.2409 150° Southeast  Level Estimated
12:27PM 39.8722 -75.2409 150° Southeast  Level Estimated